Time;durP1;ratioP1;P1;durP2;ratioP2;P2;SDS_P1;SDS_P2;PMS_P1;PMS_P2;Temp;Humidity;BMP_temperature;BMP_pressure;BME280_temperature;BME280_humidity;BME280_pressure;Samples;Min_cycle;Max_cycle;Signal;HPM_P1;HPM_P2
2023/09/14 00:01:18;;;;;;;11.10;2.70;;;;;;;19.66;62.04;101012.52;107401;1257;99198;-66
2023/09/14 00:03:47;;;;;;;9.80;2.80;;;;;;;19.66;62.02;101009.06;107352;1257;113601;-65
2023/09/14 00:06:15;;;;;;;11.90;2.50;;;;;;;19.68;62.25;101008.27;107364;1254;109798;-66
2023/09/14 00:08:44;;;;;;;14.10;2.70;;;;;;;19.69;62.28;101003.31;107389;1254;108464;-64
2023/09/14 00:11:13;;;;;;;9.30;2.70;;;;;;;19.71;62.52;101007.33;107355;1254;99249;-66
2023/09/14 00:13:41;;;;;;;8.60;2.50;;;;;;;19.72;62.44;101006.98;107381;1254;99958;-66
2023/09/14 00:16:09;;;;;;;6.50;2.70;;;;;;;19.75;62.71;101008.34;107373;1254;112434;-67
2023/09/14 00:18:38;;;;;;;9.80;2.70;;;;;;;19.75;62.67;101004.81;107367;1254;109152;-66
2023/09/14 00:21:06;;;;;;;6.70;2.50;;;;;;;19.74;62.47;101004.46;107410;1253;107397;-66
2023/09/14 00:23:35;;;;;;;13.70;3.00;;;;;;;19.74;62.83;101005.89;107369;1254;99182;-66
2023/09/14 00:26:03;;;;;;;10.00;2.80;;;;;;;19.73;62.78;101000.17;107388;1253;99858;-65
2023/09/14 00:28:31;;;;;;;6.90;2.50;;;;;;;19.71;62.79;100998.39;107372;1254;113369;-65
2023/09/14 00:30:59;;;;;;;10.10;2.70;;;;;;;19.69;62.64;100998.83;107395;1257;109881;-65
2023/09/14 00:33:28;;;;;;;6.90;2.30;;;;;;;19.69;62.91;100997.70;107305;1254;108406;-65
2023/09/14 00:35:56;;;;;;;10.60;2.40;;;;;;;19.69;62.91;100994.11;107290;1254;99173;-67
2023/09/14 00:38:25;;;;;;;8.70;2.60;;;;;;;19.68;62.85;100993.69;107391;1254;99069;-67
2023/09/14 00:40:53;;;;;;;14.00;2.60;;;;;;;19.68;62.81;100992.89;107377;1254;112688;-67
2023/09/14 00:43:21;;;;;;;8.50;2.50;;;;;;;19.68;62.82;100993.10;107274;1254;109730;-66
2023/09/14 00:45:50;;;;;;;9.20;2.40;;;;;;;19.65;62.84;100986.52;107375;1254;108261;-65
2023/09/14 00:48:19;;;;;;;12.70;2.70;;;;;;;19.64;62.82;100987.83;107402;1254;99374;-66
2023/09/14 00:50:48;;;;;;;9.80;2.50;;;;;;;19.63;62.82;100988.51;107393;1254;99303;-64
2023/09/14 00:53:19;;;;;;;15.40;3.80;;;;;;;19.60;62.78;100983.73;107278;1254;113560;-66
2023/09/14 00:55:48;;;;;;;11.10;3.30;;;;;;;19.55;62.81;100981.45;107369;1254;109899;-64
2023/09/14 00:58:17;;;;;;;12.70;3.00;;;;;;;19.51;62.89;100978.23;107337;1254;107991;-65
2023/09/14 01:00:46;;;;;;;12.30;3.40;;;;;;;19.49;63.10;100977.96;107254;1254;99170;-66
2023/09/14 01:03:16;;;;;;;13.30;2.90;;;;;;;19.48;63.09;100981.56;107417;1254;99211;-65
2023/09/14 01:05:45;;;;;;;7.40;2.70;;;;;;;19.46;62.88;100977.67;107409;1254;113054;-66
2023/09/14 01:08:14;;;;;;;21.20;3.00;;;;;;;19.43;63.26;100975.42;107423;1254;108380;-67
2023/09/14 01:10:44;;;;;;;9.50;2.70;;;;;;;19.42;63.17;100973.46;107348;1254;109412;-66
2023/09/14 01:13:26;;;;;;;13.80;2.50;;;;;;;19.40;63.24;100973.73;107364;1259;99187;-67
2023/09/14 01:16:08;;;;;;;7.20;2.50;;;;;;;19.37;63.36;100975.58;107343;1260;99282;-68
2023/09/14 01:18:44;;;;;;;8.90;2.70;;;;;;;19.36;63.48;100973.44;107309;1254;112625;-65
2023/09/14 01:21:52;;;;;;;10.80;2.60;;;;;;;19.34;63.65;100972.95;107302;1254;109072;-68
2023/09/14 01:24:49;;;;;;;13.20;2.20;;;;;;;19.31;63.67;100971.81;107349;1254;107503;-65
2023/09/14 01:27:20;;;;;;;15.90;3.00;;;;;;;19.28;63.65;100967.70;107361;1254;99275;-64
2023/09/14 01:29:49;;;;;;;12.30;2.90;;;;;;;19.25;63.65;100971.85;107447;1254;99198;-66
2023/09/14 01:32:17;;;;;;;10.80;2.40;;;;;;;19.23;63.65;100972.29;107380;1254;114552;-66
2023/09/14 01:34:46;;;;;;;7.40;2.10;;;;;;;19.21;63.87;100978.48;107363;1254;109710;-65
2023/09/14 01:37:15;;;;;;;7.10;2.60;;;;;;;19.19;63.84;100976.94;107280;1254;107333;-65
2023/09/14 01:39:44;;;;;;;13.60;2.40;;;;;;;19.16;63.77;100979.11;107413;1254;99191;-66
2023/09/14 01:42:13;;;;;;;12.80;2.70;;;;;;;19.12;63.86;100979.06;107415;1254;100884;-67
2023/09/14 01:44:43;;;;;;;6.00;2.40;;;;;;;19.08;63.91;100980.94;107331;1260;113554;-64
2023/09/14 01:47:12;;;;;;;10.10;2.70;;;;;;;19.06;64.04;100981.00;107354;1254;108848;-66
2023/09/14 01:49:41;;;;;;;11.40;2.40;;;;;;;19.05;64.15;100981.17;107306;1254;108130;-65
2023/09/14 01:52:11;;;;;;;8.20;2.80;;;;;;;19.03;64.31;100981.41;107368;1254;99269;-65
2023/09/14 01:54:39;;;;;;;4.70;2.40;;;;;;;18.99;64.39;100985.20;107396;1254;101338;-65
2023/09/14 01:57:07;;;;;;;8.00;3.10;;;;;;;18.95;64.28;100982.38;107388;1254;113652;-65
2023/09/14 01:59:36;;;;;;;8.00;2.80;;;;;;;18.91;64.43;100981.51;107404;1254;109310;-65
2023/09/14 02:02:04;;;;;;;14.20;2.30;;;;;;;18.88;64.78;100980.13;107410;1254;108682;-68
2023/09/14 02:04:33;;;;;;;5.80;2.70;;;;;;;18.84;64.74;100978.41;107408;1254;99352;-66
2023/09/14 02:07:01;;;;;;;11.00;2.90;;;;;;;18.81;65.03;100980.79;107378;1254;99210;-64
2023/09/14 02:09:34;;;;;;;16.60;3.50;;;;;;;18.76;64.98;100981.31;107273;1254;112751;-67
2023/09/14 02:12:03;;;;;;;7.30;2.60;;;;;;;18.74;64.98;100985.79;107395;1254;109738;-66
2023/09/14 02:14:32;;;;;;;15.00;2.60;;;;;;;18.72;65.13;100984.52;107363;1254;107878;-66
2023/09/14 02:17:00;;;;;;;10.00;2.90;;;;;;;18.71;65.32;100981.52;107346;1254;99201;-66
2023/09/14 02:19:29;;;;;;;16.90;2.90;;;;;;;18.72;65.31;100982.07;107384;1254;99707;-65
2023/09/14 02:21:57;;;;;;;11.50;3.20;;;;;;;18.71;65.30;100977.92;107378;1254;112788;-64
2023/09/14 02:24:26;;;;;;;22.30;3.40;;;;;;;18.71;65.29;100979.23;107392;1254;109896;-66
2023/09/14 02:26:54;;;;;;;9.60;2.90;;;;;;;18.70;65.44;100976.96;107361;1258;109152;-66
2023/09/14 02:29:22;;;;;;;12.20;3.30;;;;;;;18.69;65.46;100978.71;107269;1257;99371;-65
2023/09/14 02:31:50;;;;;;;16.30;3.20;;;;;;;18.68;65.52;100977.58;107367;1254;99153;-66
2023/09/14 02:34:19;;;;;;;17.10;2.80;;;;;;;18.65;65.51;100977.19;107410;1254;112301;-65
2023/09/14 02:36:48;;;;;;;16.80;3.60;;;;;;;18.64;65.76;100975.70;107379;1254;109912;-66
2023/09/14 02:39:16;;;;;;;15.90;3.20;;;;;;;18.62;65.68;100976.64;107393;1254;107302;-65
2023/09/14 02:41:44;;;;;;;12.30;3.10;;;;;;;18.60;65.61;100984.73;107428;1260;99283;-65
2023/09/14 02:44:12;;;;;;;9.80;3.40;;;;;;;18.59;65.88;100987.28;107352;1254;99223;-66
2023/09/14 02:46:41;;;;;;;13.90;3.00;;;;;;;18.57;65.72;100983.97;107306;1257;113253;-66
2023/09/14 02:49:09;;;;;;;6.70;2.80;;;;;;;18.55;65.83;100988.80;107297;1254;110490;-64
2023/09/14 02:51:38;;;;;;;7.40;2.60;;;;;;;18.52;65.95;100986.90;107373;1254;107711;-64
2023/09/14 02:54:06;;;;;;;11.40;3.10;;;;;;;18.52;66.05;100985.72;107392;1254;99179;-65
2023/09/14 02:56:34;;;;;;;10.40;3.00;;;;;;;18.50;66.11;100984.30;107291;1254;99168;-66
2023/09/14 02:59:03;;;;;;;10.00;2.70;;;;;;;18.50;66.14;100988.16;107385;1258;112824;-66
2023/09/14 03:01:32;;;;;;;9.40;3.10;;;;;;;18.46;66.10;100981.67;107304;1254;109073;-67
2023/09/14 03:04:01;;;;;;;10.20;3.10;;;;;;;18.42;66.17;100983.02;107320;1260;108377;-64
2023/09/14 03:06:29;;;;;;;11.50;2.90;;;;;;;18.38;66.31;100985.11;107338;1254;99176;-64
2023/09/14 03:08:58;;;;;;;15.80;3.50;;;;;;;18.36;66.19;100985.45;107282;1254;99707;-65
2023/09/14 03:11:26;;;;;;;7.40;3.30;;;;;;;18.32;66.30;100986.64;107371;1254;112753;-66
2023/09/14 03:13:55;;;;;;;12.20;3.20;;;;;;;18.29;66.39;100988.19;107258;1257;110796;-66
2023/09/14 03:16:23;;;;;;;14.70;2.90;;;;;;;18.26;66.34;100988.33;107345;1258;108586;-64
2023/09/14 03:18:52;;;;;;;7.90;2.90;;;;;;;18.23;66.48;100985.40;107191;1254;99180;-66
2023/09/14 03:21:23;;;;;;;4.50;2.60;;;;;;;18.21;66.73;100983.76;107399;1253;99210;-66
2023/09/14 03:23:53;;;;;;;14.00;2.70;;;;;;;18.15;67.19;100984.55;107232;1257;111604;-65
2023/09/14 03:26:27;;;;;;;10.80;2.60;;;;;;;18.08;66.87;100987.59;107280;1256;109665;-66
2023/09/14 03:28:56;;;;;;;13.90;4.10;;;;;;;18.02;66.99;100990.96;107306;1256;108704;-65
2023/09/14 03:31:25;;;;;;;5.00;2.90;;;;;;;17.99;67.23;100989.56;107357;1257;99179;-67
2023/09/14 03:33:54;;;;;;;13.50;3.20;;;;;;;17.95;67.04;100989.80;107376;1257;99102;-65
2023/09/14 03:36:22;;;;;;;12.10;3.40;;;;;;;17.93;67.24;100991.84;107352;1257;113460;-65
2023/09/14 03:38:51;;;;;;;17.10;3.80;;;;;;;17.91;67.42;100990.83;107234;1256;108703;-65
2023/09/14 03:41:23;;;;;;;5.00;2.70;;;;;;;17.88;67.37;100993.32;107223;1255;108115;-66
2023/09/14 03:43:52;;;;;;;13.40;3.20;;;;;;;17.85;67.61;101003.23;107265;1257;99218;-65
2023/09/14 03:46:22;;;;;;;9.00;3.40;;;;;;;17.83;67.67;101000.94;107289;1257;99736;-64
2023/09/14 03:48:51;;;;;;;17.40;4.00;;;;;;;17.81;67.66;100999.11;107323;1257;112187;-63
2023/09/14 03:51:20;;;;;;;22.90;3.10;;;;;;;17.81;67.73;101004.28;107271;1257;109185;-66
2023/09/14 03:53:48;;;;;;;11.30;3.90;;;;;;;17.78;67.89;101004.74;107347;1258;108506;-64
2023/09/14 03:56:16;;;;;;;25.90;3.70;;;;;;;17.76;67.97;101005.95;107217;1257;99246;-65
2023/09/14 03:58:45;;;;;;;17.50;3.80;;;;;;;17.74;68.03;101011.27;107246;1258;99135;-66
2023/09/14 04:01:13;;;;;;;10.70;3.80;;;;;;;17.73;68.10;101014.09;107247;1257;112285;-66
2023/09/14 04:03:42;;;;;;;17.70;3.90;;;;;;;17.71;68.31;101011.78;107229;1257;109686;-66
2023/09/14 04:06:11;;;;;;;14.50;3.70;;;;;;;17.70;68.30;101010.06;107260;1257;108160;-66
2023/09/14 04:08:40;;;;;;;9.10;3.30;;;;;;;17.70;68.31;101012.85;107378;1257;99089;-66
2023/09/14 04:11:09;;;;;;;23.10;3.50;;;;;;;17.70;68.38;101009.95;107357;1256;99733;-65
2023/09/14 04:13:38;;;;;;;15.30;3.90;;;;;;;17.71;68.37;101012.37;107379;1256;113460;-68
2023/09/14 04:16:08;;;;;;;27.60;4.20;;;;;;;17.71;68.58;101014.16;107382;1256;111042;-68
2023/09/14 04:18:40;;;;;;;25.60;4.40;;;;;;;17.71;68.46;101015.63;107181;1257;108473;-66
2023/09/14 04:21:09;;;;;;;9.00;3.30;;;;;;;17.70;68.48;101013.30;107244;1257;99269;-66
2023/09/14 04:23:37;;;;;;;17.00;3.50;;;;;;;17.69;68.57;101017.11;107277;1257;99720;-68
2023/09/14 04:26:09;;;;;;;11.50;3.80;;;;;;;17.68;68.44;101015.92;107333;1257;112725;-66
2023/09/14 04:28:38;;;;;;;14.50;3.60;;;;;;;17.68;68.44;101011.22;107345;1257;109032;-66
2023/09/14 04:31:09;;;;;;;9.80;4.30;;;;;;;17.70;68.77;101013.13;107355;1259;108285;-66
2023/09/14 04:33:41;;;;;;;9.40;3.40;;;;;;;17.72;68.76;101013.99;107260;1257;99329;-67
2023/09/14 04:36:10;;;;;;;19.40;3.90;;;;;;;17.74;68.88;101010.85;107405;1257;99073;-64
2023/09/14 04:38:41;;;;;;;17.00;4.00;;;;;;;17.77;69.01;101009.20;107335;1259;112642;-67
2023/09/14 04:41:09;;;;;;;14.10;4.80;;;;;;;17.80;69.00;101010.91;107369;1257;108609;-64
2023/09/14 04:43:38;;;;;;;21.50;3.80;;;;;;;17.83;69.10;101018.32;107344;1258;107599;-65
2023/09/14 04:46:07;;;;;;;18.00;4.00;;;;;;;17.87;69.06;101019.40;107379;1254;99198;-67
2023/09/14 04:48:41;;;;;;;37.10;4.80;;;;;;;17.89;68.91;101016.11;107369;1257;99758;-67
2023/09/14 04:51:13;;;;;;;22.90;3.70;;;;;;;17.89;68.85;101018.55;107271;1257;113506;-65
2023/09/14 04:53:41;;;;;;;26.80;4.70;;;;;;;17.89;68.89;101018.21;107362;1258;108619;-65
2023/09/14 04:56:09;;;;;;;24.40;4.30;;;;;;;17.92;68.91;101018.13;107355;1257;108452;-66
2023/09/14 04:58:40;;;;;;;23.70;4.60;;;;;;;17.94;69.15;101017.83;107315;1256;99179;-66
2023/09/14 05:01:09;;;;;;;11.70;3.60;;;;;;;17.95;69.23;101015.88;107340;1257;99086;-68
2023/09/14 05:03:39;;;;;;;28.90;4.90;;;;;;;17.98;69.28;101015.79;107335;1257;113039;-66
2023/09/14 05:06:09;;;;;;;21.60;5.80;;;;;;;18.02;69.43;101010.73;107279;1255;109868;-66
2023/09/14 05:08:37;;;;;;;41.40;5.30;;;;;;;18.06;69.38;101010.88;107277;1254;108774;-67
2023/09/14 05:11:06;;;;;;;21.30;5.00;;;;;;;18.11;69.46;101007.38;107253;1254;99081;-66
2023/09/14 05:13:34;;;;;;;29.20;5.20;;;;;;;18.16;69.51;101002.94;107343;1257;99067;-65
2023/09/14 05:16:02;;;;;;;32.50;4.40;;;;;;;18.23;69.69;101004.54;107389;1254;112788;-66
2023/09/14 05:18:31;;;;;;;35.80;5.10;;;;;;;18.28;69.62;101005.21;107242;1260;108505;-64
2023/09/14 05:20:59;;;;;;;19.30;4.20;;;;;;;18.33;69.62;101003.58;107227;1254;107935;-65
2023/09/14 05:23:28;;;;;;;29.70;4.50;;;;;;;18.38;69.67;101003.30;107350;1254;99185;-63
2023/09/14 05:25:56;;;;;;;20.10;4.20;;;;;;;18.43;69.58;100998.15;107409;1254;99191;-66
2023/09/14 05:28:25;;;;;;;13.50;3.60;;;;;;;18.49;69.59;101000.02;107357;1256;113523;-66
2023/09/14 05:30:54;;;;;;;30.40;4.80;;;;;;;18.55;69.53;100999.48;107242;1260;109890;-67
2023/09/14 05:33:22;;;;;;;28.90;5.20;;;;;;;18.61;69.42;100997.16;107415;1259;108361;-64
2023/09/14 05:35:53;;;;;;;13.00;3.90;;;;;;;18.67;69.37;101001.87;107365;1254;99201;-64
2023/09/14 05:38:22;;;;;;;15.60;4.00;;;;;;;18.71;69.44;100994.30;107406;1258;99360;-66
2023/09/14 05:40:52;;;;;;;12.90;3.50;;;;;;;18.75;69.32;100997.80;107396;1254;113329;-64
2023/09/14 05:43:21;;;;;;;23.10;3.80;;;;;;;18.79;69.26;100991.41;107358;1254;109676;-65
2023/09/14 05:45:50;;;;;;;19.30;4.10;;;;;;;18.82;69.06;100991.71;107330;1260;107441;-64
2023/09/14 05:48:19;;;;;;;13.90;4.20;;;;;;;18.88;68.96;100988.48;107385;1259;99261;-67
2023/09/14 05:50:49;;;;;;;11.20;3.70;;;;;;;18.92;68.83;100989.61;107397;1254;99682;-65
2023/09/14 05:53:18;;;;;;;13.20;4.30;;;;;;;18.98;68.75;100986.50;107275;1260;112931;-65
2023/09/14 05:55:46;;;;;;;18.30;4.50;;;;;;;19.05;68.77;100984.55;107379;1258;109185;-65
2023/09/14 05:58:15;;;;;;;15.70;3.80;;;;;;;19.12;68.89;100985.39;107200;1257;108234;-65
2023/09/14 06:00:43;;;;;;;13.40;3.60;;;;;;;19.17;68.63;100984.27;107248;1259;99293;-65
2023/09/14 06:03:11;;;;;;;10.40;4.80;;;;;;;19.22;68.71;100979.83;107377;1254;99060;-65
2023/09/14 06:05:40;;;;;;;8.30;4.20;;;;;;;19.28;69.25;100981.29;107256;1254;113494;-67
2023/09/14 06:08:08;;;;;;;11.40;3.80;;;;;;;19.32;68.60;100980.77;107389;1254;109778;-65
2023/09/14 06:10:36;;;;;;;9.00;4.00;;;;;;;19.38;68.56;100980.59;107367;1254;108240;-66
2023/09/14 06:13:05;;;;;;;12.60;4.10;;;;;;;19.47;68.61;100981.88;107379;1255;99313;-66
2023/09/14 06:15:33;;;;;;;9.60;3.90;;;;;;;19.56;68.51;100981.57;107373;1254;99105;-65
2023/09/14 06:18:01;;;;;;;7.10;3.30;;;;;;;19.65;68.44;100983.87;107394;1254;112883;-65
2023/09/14 06:20:30;;;;;;;8.90;3.20;;;;;;;19.72;68.25;100984.62;107396;1254;109646;-65
2023/09/14 06:22:59;;;;;;;9.60;3.40;;;;;;;19.78;68.01;100988.95;107368;1254;108002;-66
2023/09/14 06:25:27;;;;;;;13.60;3.50;;;;;;;19.85;67.69;100986.14;107376;1254;99263;-67
2023/09/14 06:27:55;;;;;;;11.50;3.60;;;;;;;19.90;67.36;100991.33;107381;1254;99031;-66
2023/09/14 06:30:24;;;;;;;21.10;5.00;;;;;;;19.96;67.11;100991.52;107368;1254;112825;-67
2023/09/14 06:32:52;;;;;;;22.80;3.90;;;;;;;20.04;67.08;100993.04;107355;1254;109329;-67
2023/09/14 06:35:20;;;;;;;11.40;3.50;;;;;;;20.12;66.89;100990.64;107343;1255;107494;-66
2023/09/14 06:37:48;;;;;;;11.60;3.70;;;;;;;20.19;66.74;100991.21;107355;1254;99166;-68
2023/09/14 06:40:17;;;;;;;12.80;3.40;;;;;;;20.27;66.48;100992.22;107381;1255;99179;-67
2023/09/14 06:42:46;;;;;;;23.40;4.80;;;;;;;20.34;66.16;100992.96;107389;1254;112704;-66
2023/09/14 06:45:14;;;;;;;12.50;4.00;;;;;;;20.42;65.93;101000.14;107388;1254;109047;-67
2023/09/14 06:47:43;;;;;;;14.90;3.80;;;;;;;20.52;66.00;101001.91;107394;1255;108280;-67
2023/09/14 06:50:12;;;;;;;14.60;3.90;;;;;;;20.62;65.84;101000.79;107367;1255;99256;-67
2023/09/14 06:52:40;;;;;;;9.60;3.90;;;;;;;20.73;65.72;101001.64;107381;1260;99187;-65
2023/09/14 06:55:09;;;;;;;15.10;3.60;;;;;;;20.83;65.66;101002.38;107411;1254;113334;-66
2023/09/14 06:57:37;;;;;;;13.60;4.20;;;;;;;20.93;65.54;100999.86;107402;1258;109142;-66
2023/09/14 07:00:20;;;;;;;13.60;4.10;;;;;;;21.03;65.51;101002.35;107359;1258;108272;-66
2023/09/14 07:02:48;;;;;;;21.90;4.00;;;;;;;21.13;65.27;100998.91;107380;1254;99185;-67
2023/09/14 07:05:17;;;;;;;21.30;3.80;;;;;;;21.22;64.88;101005.02;107366;1260;99281;-66
2023/09/14 07:07:45;;;;;;;22.30;3.90;;;;;;;21.30;64.56;101006.63;107352;1257;112733;-65
2023/09/14 07:10:14;;;;;;;20.90;4.40;;;;;;;21.37;64.09;101003.59;107340;1258;109293;-65
2023/09/14 07:12:42;;;;;;;15.80;4.00;;;;;;;21.44;63.68;100999.77;107345;1259;107636;-67
2023/09/14 07:15:11;;;;;;;15.00;3.70;;;;;;;21.51;63.30;100996.50;107379;1258;99301;-65
2023/09/14 07:17:39;;;;;;;14.30;4.10;;;;;;;21.58;62.94;100997.73;107290;1261;99106;-66
2023/09/14 07:20:09;;;;;;;28.20;9.10;;;;;;;21.66;62.33;100998.59;107194;1257;112299;-66
2023/09/14 07:22:38;;;;;;;16.00;4.70;;;;;;;21.73;62.31;100997.64;107355;1260;108546;-65
2023/09/14 07:25:08;;;;;;;22.80;5.60;;;;;;;21.81;62.01;100998.55;107326;1259;107304;-67
2023/09/14 07:27:37;;;;;;;17.10;5.20;;;;;;;21.90;61.94;100997.61;107281;1257;99188;-67
2023/09/14 07:30:06;;;;;;;15.90;4.90;;;;;;;22.02;61.77;100996.89;107286;1259;99038;-66
2023/09/14 07:32:34;;;;;;;20.90;5.30;;;;;;;22.14;61.65;100990.77;107282;1259;113089;-66
2023/09/14 07:35:04;;;;;;;20.20;5.10;;;;;;;22.24;61.18;100992.13;107275;1257;110213;-66
2023/09/14 07:37:32;;;;;;;13.80;4.50;;;;;;;22.36;61.02;100990.00;107366;1257;108771;-65
2023/09/14 07:40:00;;;;;;;22.80;4.80;;;;;;;22.47;60.75;100987.62;107385;1254;99200;-65
2023/09/14 07:42:29;;;;;;;28.50;5.10;;;;;;;22.57;60.34;100992.23;107388;1258;99064;-69
2023/09/14 07:44:58;;;;;;;18.60;4.40;;;;;;;22.67;59.79;100991.14;107374;1258;111964;-66
2023/09/14 07:47:29;;;;;;;23.90;4.40;;;;;;;22.75;59.22;100993.61;107369;1257;109466;-66
2023/09/14 07:49:59;;;;;;;25.50;5.00;;;;;;;22.85;59.19;100991.96;107345;1260;107840;-67
2023/09/14 07:52:30;;;;;;;22.20;4.20;;;;;;;22.95;59.07;100988.49;107354;1257;99213;-67
2023/09/14 07:54:58;;;;;;;27.30;4.90;;;;;;;23.05;58.77;100990.76;107399;1255;99070;-66
2023/09/14 07:57:27;;;;;;;15.70;6.10;;;;;;;23.16;58.37;100990.65;107367;1259;113105;-67
2023/09/14 07:59:55;;;;;;;17.40;4.30;;;;;;;23.25;58.23;100986.39;107303;1256;107987;-67
2023/09/14 08:02:25;;;;;;;15.40;4.80;;;;;;;23.38;57.94;100991.16;107341;1257;108468;-65
2023/09/14 08:04:54;;;;;;;15.50;4.30;;;;;;;23.52;57.77;100988.38;107367;1257;99271;-68
2023/09/14 08:07:23;;;;;;;18.80;4.70;;;;;;;23.65;57.71;100984.68;107388;1257;99349;-66
2023/09/14 08:09:51;;;;;;;12.40;4.50;;;;;;;23.80;57.44;100984.99;107379;1258;113508;-67
2023/09/14 08:12:20;;;;;;;12.90;4.20;;;;;;;23.96;56.85;100983.41;107258;1260;109699;-66
2023/09/14 08:14:48;;;;;;;16.00;3.80;;;;;;;24.11;56.49;100982.61;107281;1258;107390;-66
2023/09/14 08:17:16;;;;;;;13.00;3.50;;;;;;;24.26;56.34;100981.31;107216;1258;99178;-67
2023/09/14 08:19:44;;;;;;;7.80;3.40;;;;;;;24.43;55.35;100980.83;107322;1257;99183;-66
2023/09/14 08:22:14;;;;;;;13.90;3.90;;;;;;;24.57;55.22;100980.02;107396;1255;113012;-65
2023/09/14 08:24:42;;;;;;;32.50;4.30;;;;;;;24.71;55.22;100976.04;107364;1260;109381;-65
2023/09/14 08:27:12;;;;;;;16.70;3.90;;;;;;;24.87;55.08;100976.94;107362;1260;107574;-67
2023/09/14 08:29:43;;;;;;;17.40;3.60;;;;;;;25.04;54.42;100971.91;107354;1258;99213;-66
2023/09/14 08:32:12;;;;;;;15.40;4.10;;;;;;;25.20;53.65;100971.95;107393;1260;99185;-68
2023/09/14 08:34:40;;;;;;;14.40;3.30;;;;;;;25.36;53.23;100973.04;107354;1257;111808;-69
2023/09/14 08:37:09;;;;;;;15.80;3.60;;;;;;;25.50;53.12;100967.05;107333;1258;109026;-64
2023/09/14 08:39:38;;;;;;;13.00;4.10;;;;;;;25.71;52.58;100963.98;107383;1258;108799;-67
2023/09/14 08:42:06;;;;;;;18.30;3.60;;;;;;;25.90;51.58;100961.77;107402;1260;99170;-66
2023/09/14 08:44:34;;;;;;;11.40;3.20;;;;;;;26.08;51.39;100959.05;107400;1257;99147;-67
2023/09/14 08:47:06;;;;;;;15.20;4.40;;;;;;;26.29;51.07;100952.52;107354;1257;112401;-65
2023/09/14 08:49:36;;;;;;;19.20;3.80;;;;;;;26.53;50.40;100954.15;107288;1257;108555;-66
2023/09/14 08:52:06;;;;;;;13.30;3.70;;;;;;;26.75;49.64;100956.36;107100;1263;107022;-66
2023/09/14 08:54:35;;;;;;;11.90;4.00;;;;;;;26.97;48.80;100957.09;107292;1257;99077;-67
2023/09/14 08:57:06;;;;;;;16.70;4.50;;;;;;;27.18;48.64;100953.73;107266;1257;99716;-65
2023/09/14 08:59:36;;;;;;;15.90;3.30;;;;;;;27.41;48.34;100948.70;107391;1260;113655;-67
2023/09/14 09:02:07;;;;;;;11.70;3.60;;;;;;;27.66;47.90;100946.34;107365;1258;109448;-66
2023/09/14 09:04:36;;;;;;;15.20;3.60;;;;;;;27.95;46.37;100947.71;107310;1257;107816;-67
2023/09/14 09:07:06;;;;;;;14.40;3.50;;;;;;;28.21;46.80;100947.88;107372;1259;99774;-67
2023/09/14 09:09:35;;;;;;;8.60;3.50;;;;;;;28.56;46.53;100947.66;107377;1257;99211;-67
2023/09/14 09:12:05;;;;;;;20.40;3.80;;;;;;;28.91;45.11;100947.22;107367;1256;112859;-66
2023/09/14 09:14:37;;;;;;;15.60;3.90;;;;;;;29.23;43.62;100946.10;107367;1257;109862;-67
2023/09/14 09:17:06;;;;;;;14.90;3.70;;;;;;;29.63;44.34;100945.53;107358;1257;108286;-66
2023/09/14 09:19:49;;;;;;;15.90;4.20;;;;;;;30.10;43.31;100938.11;107331;1258;99195;-65
2023/09/14 09:22:18;;;;;;;9.80;3.20;;;;;;;30.75;42.60;100933.13;107386;1257;99195;-67
2023/09/14 09:24:46;;;;;;;14.30;3.40;;;;;;;31.47;41.14;100934.49;107278;1257;112533;-67
2023/09/14 09:27:27;;;;;;;15.40;3.90;;;;;;;32.08;38.25;100929.86;107324;1257;108836;-65
2023/09/14 09:30:03;;;;;;;18.00;3.50;;;;;;;32.73;38.26;100926.38;107263;1260;108277;-66
2023/09/14 09:32:32;;;;;;;14.00;3.30;;;;;;;33.46;37.84;100923.00;107264;1257;99192;-65
2023/09/14 09:35:16;;;;;;;12.90;3.70;;;;;;;34.04;36.19;100918.91;107384;1257;99726;-66
2023/09/14 09:37:46;;;;;;;19.40;3.70;;;;;;;34.67;35.12;100911.77;107361;1259;113231;-65
2023/09/14 09:40:17;;;;;;;9.90;3.50;;;;;;;35.24;33.99;100913.92;107381;1257;110418;-65
2023/09/14 09:42:46;;;;;;;11.90;2.60;;;;;;;35.80;34.15;100907.16;107376;1260;108303;-67
2023/09/14 09:45:18;;;;;;;11.40;2.60;;;;;;;36.40;33.17;100903.42;107367;1257;99278;-66
2023/09/14 09:47:47;;;;;;;10.00;3.50;;;;;;;36.95;31.98;100900.14;107387;1257;99086;-67
2023/09/14 09:50:20;;;;;;;18.70;3.60;;;;;;;37.46;30.53;100898.79;107394;1257;112265;-67
2023/09/14 09:52:49;;;;;;;16.10;2.90;;;;;;;37.92;30.23;100898.85;107382;1256;108500;-67
2023/09/14 09:55:23;;;;;;;12.10;2.50;;;;;;;38.39;29.95;100898.04;107363;1257;107802;-67
2023/09/14 09:57:52;;;;;;;14.10;3.00;;;;;;;38.91;28.09;100890.94;106820;1256;727679;-67
2023/09/14 10:00:27;;;;;;;9.00;2.60;;;;;;;39.43;27.93;100885.33;107398;1257;99099;-68
2023/09/14 10:02:57;;;;;;;20.70;3.50;;;;;;;39.81;26.54;100883.03;107366;1258;113642;-68
2023/09/14 10:05:29;;;;;;;9.50;2.80;;;;;;;40.17;25.64;100878.70;107398;1254;110076;-67
2023/09/14 10:08:00;;;;;;;11.10;2.60;;;;;;;40.47;25.14;100875.00;107359;1254;108408;-68
2023/09/14 10:10:30;;;;;;;11.40;3.20;;;;;;;40.80;24.77;100874.45;107395;1254;99368;-67
2023/09/14 10:12:59;;;;;;;15.80;2.80;;;;;;;40.54;22.98;100870.93;107417;1254;99685;-67
2023/09/14 10:15:28;;;;;;;10.70;3.20;;;;;;;40.57;23.79;100867.94;107403;1254;113140;-67
2023/09/14 10:17:58;;;;;;;16.10;3.30;;;;;;;40.93;23.78;100864.80;107393;1254;109592;-67
2023/09/14 10:20:28;;;;;;;13.20;3.00;;;;;;;41.26;22.75;100863.95;107374;1254;108040;-66
2023/09/14 10:23:00;;;;;;;11.00;2.90;;;;;;;41.15;21.76;100865.42;107393;1254;99300;-66
2023/09/14 10:25:29;;;;;;;13.10;2.80;;;;;;;41.11;22.88;100862.15;107439;1254;99160;-68
2023/09/14 10:28:00;;;;;;;15.40;3.00;;;;;;;41.48;22.00;100861.40;107435;1254;112903;-67
2023/09/14 10:30:29;;;;;;;13.90;3.20;;;;;;;41.66;21.70;100861.00;107387;1254;109499;-67
2023/09/14 10:32:59;;;;;;;12.30;2.60;;;;;;;41.85;21.65;100859.85;107365;1254;107514;-67
2023/09/14 10:35:30;;;;;;;18.50;2.90;;;;;;;42.03;21.39;100855.35;107385;1254;99201;-67
2023/09/14 10:37:59;;;;;;;7.60;2.70;;;;;;;42.33;21.34;100851.70;107390;1257;100859;-68
2023/09/14 10:40:29;;;;;;;10.80;3.00;;;;;;;42.74;21.29;100849.62;107439;1254;112466;-66
2023/09/14 10:42:58;;;;;;;10.20;2.90;;;;;;;43.19;20.18;100848.17;107447;1254;108180;-67
2023/09/14 10:45:39;;;;;;;7.80;2.40;;;;;;;43.46;19.77;100841.96;107459;1254;108286;-67
2023/09/14 10:48:21;;;;;;;12.50;2.60;;;;;;;43.72;19.60;100836.41;107456;1254;99182;-66
2023/09/14 10:50:50;;;;;;;13.60;3.30;;;;;;;43.97;19.13;100831.00;107452;1254;99645;-69
2023/09/14 10:53:22;;;;;;;10.60;2.70;;;;;;;44.03;19.34;100827.05;107452;1254;113194;-67
2023/09/14 10:55:50;;;;;;;6.40;2.20;;;;;;;44.35;19.15;100826.73;107441;1254;109087;-67
2023/09/14 10:58:19;;;;;;;10.70;2.80;;;;;;;44.60;18.97;100828.10;107429;1257;107739;-68
2023/09/14 11:00:55;;;;;;;18.90;3.20;;;;;;;44.85;19.05;100820.51;107459;1254;99168;-68
2023/09/14 11:03:25;;;;;;;11.50;2.80;;;;;;;45.11;18.51;100817.02;107480;1257;99739;-66
2023/09/14 11:05:54;;;;;;;13.30;2.60;;;;;;;45.45;18.09;100811.64;107476;1254;113273;-67
2023/09/14 11:08:27;;;;;;;14.60;2.80;;;;;;;45.69;17.50;100813.27;107415;1254;109813;-66
2023/09/14 11:11:00;;;;;;;16.30;2.90;;;;;;;45.64;17.04;100811.39;107482;1254;107839;-66
2023/09/14 11:13:35;;;;;;;12.10;2.80;;;;;;;45.70;17.60;100808.91;107478;1254;99176;-67
2023/09/14 11:16:13;;;;;;;9.30;2.30;;;;;;;45.86;17.10;100803.59;107487;1254;99191;-66
2023/09/14 11:18:43;;;;;;;8.40;2.40;;;;;;;46.04;16.44;100805.47;107481;1257;113719;-67